createdAt,value
2022-07-27T00:00:44.109Z,98251.78
2022-07-27T00:01:50.554Z,98252.84
2022-07-27T00:02:53.316Z,98248.94
2022-07-27T00:03:54.991Z,98248.16
2022-07-27T00:04:56.914Z,98238.72
2022-07-27T00:05:58.405Z,98238.22
2022-07-27T00:06:59.869Z,98245.00
2022-07-27T00:08:01.568Z,98238.56
2022-07-27T00:09:03.492Z,98238.13
2022-07-27T00:10:05.982Z,98239.88
2022-07-27T00:11:09.686Z,98240.22
2022-07-27T00:12:11.248Z,98244.25
2022-07-27T00:13:12.770Z,98247.59
2022-07-27T00:14:14.829Z,98244.00
2022-07-27T00:15:16.416Z,98244.81
2022-07-27T00:16:18.100Z,98237.53
2022-07-27T00:17:23.829Z,98236.47
2022-07-27T00:18:25.344Z,98229.56
2022-07-27T00:19:26.869Z,98232.78
2022-07-27T00:20:30.061Z,98239.06
2022-07-27T00:21:31.590Z,98240.47
2022-07-27T00:22:33.133Z,98238.72
2022-07-27T00:23:34.610Z,98242.00
2022-07-27T00:24:36.076Z,98236.22
2022-07-27T00:25:37.949Z,98233.91
2022-07-27T00:26:39.463Z,98234.56
2022-07-27T00:27:40.938Z,98239.78
2022-07-27T00:28:42.445Z,98234.44
2022-07-27T00:29:45.863Z,98229.44
2022-07-27T00:30:47.351Z,98229.75
2022-07-27T00:31:49.019Z,98233.88
2022-07-27T00:32:51.290Z,98228.09
2022-07-27T00:33:52.824Z,98234.22
2022-07-27T00:34:54.658Z,98232.59
2022-07-27T00:35:56.175Z,98231.53
2022-07-27T00:36:57.678Z,98239.38
2022-07-27T00:37:59.365Z,98236.94
2022-07-27T00:39:01.237Z,98228.41
2022-07-27T00:40:04.310Z,98232.38
2022-07-27T00:41:06.080Z,98230.88
2022-07-27T00:42:07.727Z,98228.47
2022-07-27T00:43:09.334Z,98235.94
2022-07-27T00:44:12.352Z,98235.19
2022-07-27T00:45:14.542Z,98234.34
2022-07-27T00:46:16.125Z,98242.78
2022-07-27T00:47:17.727Z,98237.84
2022-07-27T00:48:19.262Z,98243.47
2022-07-27T00:49:21.080Z,98251.50
2022-07-27T00:50:23.259Z,98253.75
2022-07-27T00:51:25.369Z,98257.53
2022-07-27T00:52:28.833Z,98261.28
2022-07-27T00:53:30.393Z,98259.56
2022-07-27T00:54:31.870Z,98257.34
2022-07-27T00:55:34.269Z,98252.91
2022-07-27T00:56:35.826Z,98258.81
2022-07-27T00:57:59.111Z,98251.91
2022-07-27T00:58:59.073Z,98255.53
2022-07-27T01:00:01.188Z,98251.66
2022-07-27T01:01:02.825Z,98246.88
2022-07-27T01:02:05.352Z,98247.56
2022-07-27T01:03:13.150Z,98247.66
2022-07-27T01:04:18.094Z,98255.22
2022-07-27T01:05:20.442Z,98249.69
2022-07-27T01:06:26.803Z,98256.66
2022-07-27T01:07:32.046Z,98250.25
2022-07-27T01:08:33.890Z,98247.25
2022-07-27T01:09:54.361Z,98246.59
2022-07-27T01:10:58.482Z,98243.50
2022-07-27T01:12:00.021Z,98244.53
2022-07-27T01:13:02.348Z,98244.94
2022-07-27T01:14:03.956Z,98240.84
2022-07-27T01:15:06.198Z,98241.97
2022-07-27T01:16:07.940Z,98240.06
2022-07-27T01:17:09.766Z,98247.22
2022-07-27T01:18:33.222Z,98237.03
2022-07-27T01:19:36.057Z,98246.75
2022-07-27T01:20:37.870Z,98247.78
2022-07-27T01:21:39.412Z,98246.50
2022-07-27T01:22:40.911Z,98243.59
2022-07-27T01:23:42.399Z,98239.75
2022-07-27T01:24:43.975Z,98235.69
2022-07-27T01:25:45.793Z,98232.88
2022-07-27T01:26:47.357Z,98235.25
2022-07-27T01:27:49.169Z,98232.22
2022-07-27T01:28:57.692Z,98231.56
2022-07-27T01:29:59.162Z,98237.03
2022-07-27T01:31:01.248Z,98241.59
2022-07-27T01:32:03.168Z,98239.91
2022-07-27T01:33:07.066Z,98242.28
2022-07-27T01:34:08.526Z,98253.63
2022-07-27T01:35:11.644Z,98246.09
2022-07-27T01:36:13.527Z,98242.38
2022-07-27T01:37:15.120Z,98240.91
2022-07-27T01:38:16.611Z,98243.59
2022-07-27T01:39:19.135Z,98236.16
2022-07-27T01:40:20.674Z,98243.69
2022-07-27T01:41:22.545Z,98240.66
2022-07-27T01:42:24.033Z,98240.69
2022-07-27T01:43:26.010Z,98248.00
2022-07-27T01:44:27.798Z,98242.19
2022-07-27T01:45:29.585Z,98249.66
2022-07-27T01:46:31.470Z,98252.34
2022-07-27T01:47:32.963Z,98249.34
2022-07-27T01:48:34.463Z,98254.13
2022-07-27T01:49:36.018Z,98255.81
2022-07-27T01:50:38.011Z,98253.63
2022-07-27T01:51:39.845Z,98256.00
2022-07-27T01:52:41.511Z,98254.88
2022-07-27T01:53:42.977Z,98252.56
2022-07-27T01:54:44.444Z,98246.53
2022-07-27T01:55:46.187Z,98247.53
2022-07-27T01:56:48.397Z,98245.13
2022-07-27T01:57:49.968Z,98248.41
2022-07-27T01:58:51.499Z,98244.13
2022-07-27T01:59:53.805Z,98248.25
2022-07-27T02:00:55.929Z,98241.25
2022-07-27T02:01:57.600Z,98240.59
2022-07-27T02:02:59.248Z,98237.09
2022-07-27T02:04:00.708Z,98237.00
2022-07-27T02:05:02.421Z,98240.34
2022-07-27T02:06:05.610Z,98236.13
2022-07-27T02:07:07.073Z,98236.50
2022-07-27T02:08:08.853Z,98234.34
2022-07-27T02:09:10.529Z,98222.22
2022-07-27T02:10:12.153Z,98237.13
2022-07-27T02:11:32.324Z,98232.06
2022-07-27T02:12:36.729Z,98234.81
2022-07-27T02:13:38.379Z,98231.38
2022-07-27T02:14:39.873Z,98232.22
2022-07-27T02:15:43.213Z,98223.78
2022-07-27T02:16:46.326Z,98229.78
2022-07-27T02:17:49.032Z,98228.31
2022-07-27T02:18:51.701Z,98221.78
2022-07-27T02:19:53.191Z,98223.84
2022-07-27T02:20:54.732Z,98228.56
2022-07-27T02:21:56.646Z,98218.97
2022-07-27T02:22:58.132Z,98220.66
2022-07-27T02:23:59.644Z,98222.19
2022-07-27T02:25:01.216Z,98215.84
2022-07-27T02:26:03.867Z,98223.78
2022-07-27T02:27:05.426Z,98230.28
2022-07-27T02:28:07.300Z,98222.03
2022-07-27T02:29:09.086Z,98222.81
2022-07-27T02:30:13.044Z,98218.22
2022-07-27T02:31:14.593Z,98219.91
2022-07-27T02:32:16.822Z,98219.22
2022-07-27T02:33:18.343Z,98218.03
2022-07-27T02:34:19.883Z,98210.19
2022-07-27T02:35:21.355Z,98203.59
2022-07-27T02:36:22.976Z,98201.59
2022-07-27T02:37:25.358Z,98204.16
2022-07-27T02:38:26.885Z,98207.16
2022-07-27T02:39:28.440Z,98205.41
2022-07-27T02:40:29.960Z,98205.69
2022-07-27T02:41:31.821Z,98204.53
2022-07-27T02:42:33.296Z,98209.13
2022-07-27T02:43:34.756Z,98201.56
2022-07-27T02:44:36.243Z,98205.06
2022-07-27T02:45:37.751Z,98200.09
2022-07-27T02:46:39.667Z,98202.94
2022-07-27T02:47:41.604Z,98203.44
2022-07-27T02:48:43.263Z,98204.03
2022-07-27T02:49:44.763Z,98204.44
2022-07-27T02:50:46.382Z,98205.13
2022-07-27T02:51:52.976Z,98199.78
2022-07-27T02:52:54.439Z,98206.31
2022-07-27T02:53:55.888Z,98212.09
2022-07-27T02:54:57.370Z,98204.56
2022-07-27T02:55:58.902Z,98207.25
2022-07-27T02:57:02.943Z,98209.13
2022-07-27T02:58:04.425Z,98211.72
2022-07-27T02:59:05.906Z,98209.78
2022-07-27T03:00:13.826Z,98207.53
2022-07-27T03:01:15.329Z,98209.75
2022-07-27T03:02:17.383Z,98205.53
2022-07-27T03:03:18.940Z,98217.78
2022-07-27T03:04:20.503Z,98213.63
2022-07-27T03:05:22.071Z,98208.75
2022-07-27T03:06:23.579Z,98209.91
2022-07-27T03:07:25.422Z,98220.13
2022-07-27T03:08:26.896Z,98216.25
2022-07-27T03:09:33.374Z,98215.03
2022-07-27T03:10:35.246Z,98212.31
2022-07-27T03:11:37.526Z,98211.56
2022-07-27T03:12:39.471Z,98214.25
2022-07-27T03:13:42.136Z,98216.59
2022-07-27T03:14:43.589Z,98221.94
2022-07-27T03:15:45.127Z,98218.19
2022-07-27T03:16:46.610Z,98219.28
2022-07-27T03:17:48.485Z,98214.31
2022-07-27T03:18:50.048Z,98223.41
2022-07-27T03:19:51.539Z,98229.06
2022-07-27T03:20:53.236Z,98225.66
2022-07-27T03:21:54.705Z,98224.56
2022-07-27T03:22:56.269Z,98227.59
2022-07-27T03:23:57.776Z,98227.16
2022-07-27T03:24:59.508Z,98227.13
2022-07-27T03:26:01.491Z,98233.28
2022-07-27T03:27:03.217Z,98229.56
2022-07-27T03:28:05.022Z,98234.94
2022-07-27T03:29:06.481Z,98232.25
2022-07-27T03:30:08.561Z,98232.78
2022-07-27T03:31:10.135Z,98232.81
2022-07-27T03:32:11.672Z,98236.28
2022-07-27T03:33:13.192Z,98235.88
2022-07-27T03:34:14.666Z,98240.78
2022-07-27T03:35:16.197Z,98246.47
2022-07-27T03:36:17.758Z,98243.13
2022-07-27T03:37:20.412Z,98237.88
2022-07-27T03:38:23.156Z,98232.84
2022-07-27T03:39:24.706Z,98232.47
2022-07-27T03:40:26.261Z,98233.97
2022-07-27T03:41:27.771Z,98231.31
2022-07-27T03:42:29.577Z,98229.41
2022-07-27T03:43:31.046Z,98235.38
2022-07-27T03:44:33.440Z,98232.31
2022-07-27T03:45:34.961Z,98232.28
2022-07-27T03:46:36.443Z,98240.38
2022-07-27T03:47:38.291Z,98235.94
2022-07-27T03:48:40.274Z,98241.28
2022-07-27T03:49:42.270Z,98244.44
2022-07-27T03:50:43.730Z,98246.69
2022-07-27T03:51:45.189Z,98253.66
2022-07-27T03:52:47.088Z,98237.78
2022-07-27T03:53:48.691Z,98250.69
2022-07-27T03:54:50.154Z,98252.13
2022-07-27T03:55:52.239Z,98253.69
2022-07-27T03:56:53.783Z,98240.75
2022-07-27T03:57:55.726Z,98248.22
2022-07-27T03:58:57.222Z,98246.59
2022-07-27T03:59:58.768Z,98247.66
2022-07-27T04:01:00.370Z,98244.56
2022-07-27T04:02:02.101Z,98251.03
2022-07-27T04:03:03.973Z,98249.94
2022-07-27T04:04:05.509Z,98249.13
2022-07-27T04:05:07.923Z,98252.53
2022-07-27T04:06:09.346Z,98250.28
2022-07-27T04:07:10.796Z,98247.59
2022-07-27T04:08:12.591Z,98247.56
2022-07-27T04:09:14.540Z,98244.13
2022-07-27T04:10:16.228Z,98250.00
2022-07-27T04:11:18.810Z,98245.09
2022-07-27T04:12:20.425Z,98250.44
2022-07-27T04:13:23.175Z,98252.31
2022-07-27T04:14:24.663Z,98253.84
2022-07-27T04:15:26.796Z,98242.53
2022-07-27T04:16:31.738Z,98247.41
2022-07-27T04:17:55.239Z,98252.59
2022-07-27T04:18:57.597Z,98251.78
2022-07-27T04:19:59.213Z,98252.53
2022-07-27T04:21:03.368Z,98249.09
2022-07-27T04:22:04.925Z,98258.94
2022-07-27T04:23:06.544Z,98261.16
2022-07-27T04:24:08.308Z,98251.63
2022-07-27T04:25:10.249Z,98259.22
2022-07-27T04:26:11.803Z,98255.44
2022-07-27T04:27:13.311Z,98262.97
2022-07-27T04:28:14.917Z,98258.34
2022-07-27T04:29:20.389Z,98261.28
2022-07-27T04:30:23.598Z,98263.53
2022-07-27T04:31:25.366Z,98267.69
2022-07-27T04:32:26.805Z,98268.78
2022-07-27T04:33:28.955Z,98269.47
2022-07-27T04:34:30.410Z,98269.44
2022-07-27T04:35:31.901Z,98265.97
2022-07-27T04:36:33.397Z,98272.03
2022-07-27T04:37:35.246Z,98275.38
2022-07-27T04:38:37.139Z,98269.28
2022-07-27T04:39:38.932Z,98275.34
2022-07-27T04:40:40.392Z,98268.81
2022-07-27T04:41:42.115Z,98272.25
2022-07-27T04:42:49.591Z,98271.53
2022-07-27T04:43:51.838Z,98268.56
2022-07-27T04:44:53.393Z,98270.41
2022-07-27T04:45:54.931Z,98266.88
2022-07-27T04:46:56.466Z,98266.16
2022-07-27T04:47:58.212Z,98271.13
2022-07-27T04:49:00.019Z,98274.09
2022-07-27T04:50:01.731Z,98277.03
2022-07-27T04:51:03.304Z,98272.34
2022-07-27T04:52:04.895Z,98284.84
2022-07-27T04:53:06.444Z,98282.53
2022-07-27T04:54:08.343Z,98280.16
2022-07-27T04:55:10.264Z,98285.91
2022-07-27T04:56:11.757Z,98280.25
2022-07-27T04:57:13.260Z,98284.88
2022-07-27T04:58:15.177Z,98281.09
2022-07-27T04:59:16.706Z,98279.53
2022-07-27T05:00:18.476Z,98283.69
2022-07-27T05:01:19.996Z,98283.97
2022-07-27T05:02:21.869Z,98282.00
2022-07-27T05:03:23.768Z,98289.50
2022-07-27T05:04:25.324Z,98292.13
2022-07-27T05:05:26.940Z,98292.88
2022-07-27T05:06:28.397Z,98286.28
2022-07-27T05:07:29.986Z,98293.09
2022-07-27T05:08:31.790Z,98288.50
2022-07-27T05:09:33.272Z,98283.44
2022-07-27T05:10:34.831Z,98284.91
2022-07-27T05:11:36.270Z,98282.47
2022-07-27T05:12:38.712Z,98275.81
2022-07-27T05:13:41.144Z,98286.66
2022-07-27T05:14:42.749Z,98281.91
2022-07-27T05:15:55.564Z,98283.00
2022-07-27T05:16:57.593Z,98281.44
2022-07-27T05:17:59.143Z,98277.16
2022-07-27T05:19:01.036Z,98280.19
2022-07-27T05:20:03.036Z,98276.69
2022-07-27T05:21:05.335Z,98277.38
2022-07-27T05:22:06.842Z,98275.75
2022-07-27T05:23:08.346Z,98280.63
2022-07-27T05:24:10.459Z,98276.66
2022-07-27T05:25:11.998Z,98282.97
2022-07-27T05:26:13.472Z,98281.78
2022-07-27T05:27:14.940Z,98281.13
2022-07-27T05:28:16.501Z,98289.00
2022-07-27T05:29:18.433Z,98282.69
2022-07-27T05:30:21.056Z,98289.16
2022-07-27T05:31:22.723Z,98292.50
2022-07-27T05:32:27.203Z,98288.19
2022-07-27T05:33:28.744Z,98297.97
2022-07-27T05:34:30.970Z,98300.16
2022-07-27T05:35:32.573Z,98299.34
2022-07-27T05:36:34.098Z,98303.19
2022-07-27T05:37:35.620Z,98299.81
2022-07-27T05:38:40.969Z,98305.09
2022-07-27T05:39:42.552Z,98300.50
2022-07-27T05:40:45.723Z,98302.81
2022-07-27T05:41:47.184Z,98304.34
2022-07-27T05:42:50.421Z,98305.03
2022-07-27T05:43:54.693Z,98300.72
2022-07-27T05:44:56.257Z,98305.31
2022-07-27T05:45:57.751Z,98304.84
2022-07-27T05:46:59.325Z,98305.78
2022-07-27T05:48:01.215Z,98306.06
2022-07-27T05:49:03.627Z,98300.28
2022-07-27T05:50:05.901Z,98297.19
2022-07-27T05:51:07.473Z,98307.41
2022-07-27T05:52:08.904Z,98310.34
2022-07-27T05:53:11.552Z,98314.09
2022-07-27T05:54:13.420Z,98309.84
2022-07-27T05:55:14.976Z,98311.59
2022-07-27T05:56:16.553Z,98318.47
2022-07-27T05:57:18.034Z,98321.41
2022-07-27T05:58:19.554Z,98312.97
2022-07-27T05:59:26.120Z,98304.09
2022-07-27T06:00:27.596Z,98308.94
2022-07-27T06:01:29.099Z,98307.28
2022-07-27T06:02:31.649Z,98314.72
2022-07-27T06:03:33.361Z,98306.19
2022-07-27T06:04:36.010Z,98311.47
2022-07-27T06:05:37.522Z,98306.69
2022-07-27T06:06:57.371Z,98313.13
2022-07-27T06:07:58.897Z,98315.47
2022-07-27T06:09:00.404Z,98310.03
2022-07-27T06:10:02.067Z,98315.56
2022-07-27T06:11:03.505Z,98309.28
2022-07-27T06:12:05.475Z,98316.47
2022-07-27T06:13:08.755Z,98312.97
2022-07-27T06:14:10.612Z,98319.06
2022-07-27T06:15:13.330Z,98317.84
2022-07-27T06:16:14.845Z,98318.16
2022-07-27T06:17:16.862Z,98313.91
2022-07-27T06:18:18.507Z,98319.59
2022-07-27T06:19:21.417Z,98321.59
2022-07-27T06:20:24.600Z,98312.22
2022-07-27T06:21:28.138Z,98321.75
2022-07-27T06:22:29.603Z,98317.31
2022-07-27T06:23:31.516Z,98325.69
2022-07-27T06:24:34.091Z,98323.09
2022-07-27T06:25:36.213Z,98321.16
2022-07-27T06:26:37.977Z,98317.66
2022-07-27T06:27:39.652Z,98317.22
2022-07-27T06:28:41.359Z,98312.53
2022-07-27T06:29:43.149Z,98323.69
2022-07-27T06:30:45.508Z,98321.91
2022-07-27T06:31:47.155Z,98321.25
2022-07-27T06:32:49.379Z,98319.19
2022-07-27T06:33:52.373Z,98324.13
2022-07-27T06:34:54.360Z,98325.47
2022-07-27T06:35:58.289Z,98330.19
2022-07-27T06:37:00.265Z,98329.72
2022-07-27T06:38:03.092Z,98322.66
2022-07-27T06:39:04.510Z,98324.38
2022-07-27T06:40:06.956Z,98317.44
2022-07-27T06:41:08.489Z,98325.72
2022-07-27T06:42:10.044Z,98331.25
2022-07-27T06:43:11.487Z,98317.75
2022-07-27T06:44:12.977Z,98318.19
2022-07-27T06:45:14.850Z,98316.69
2022-07-27T06:46:16.865Z,98318.41
2022-07-27T06:47:18.515Z,98319.53
2022-07-27T06:48:21.321Z,98321.34
2022-07-27T06:49:23.076Z,98329.16
2022-07-27T06:50:24.647Z,98317.25
2022-07-27T06:51:26.185Z,98322.94
2022-07-27T06:52:28.525Z,98319.91
2022-07-27T06:53:30.036Z,98326.91
2022-07-27T06:54:38.198Z,98320.03
2022-07-27T06:55:39.658Z,98329.66
2022-07-27T06:56:41.104Z,98328.91
2022-07-27T06:57:43.042Z,98321.84
2022-07-27T06:58:44.772Z,98332.06
2022-07-27T06:59:46.611Z,98325.03
2022-07-27T07:00:52.343Z,98326.84
2022-07-27T07:01:54.016Z,98330.19
2022-07-27T07:02:59.679Z,98333.19
2022-07-27T07:04:04.450Z,98328.47
2022-07-27T07:05:06.888Z,98326.44
2022-07-27T07:06:08.997Z,98325.22
2022-07-27T07:07:13.407Z,98324.03
2022-07-27T07:08:15.571Z,98323.09
2022-07-27T07:09:20.102Z,98332.66
2022-07-27T07:10:27.152Z,98328.06
2022-07-27T07:11:28.681Z,98323.28
2022-07-27T07:12:32.047Z,98326.41
2022-07-27T07:13:37.722Z,98321.34
2022-07-27T07:14:41.086Z,98323.63
2022-07-27T07:15:43.823Z,98323.94
2022-07-27T07:16:45.506Z,98323.09
2022-07-27T07:17:47.060Z,98331.16
2022-07-27T07:18:52.221Z,98324.03
2022-07-27T07:19:54.216Z,98324.47
2022-07-27T07:20:56.017Z,98324.91
2022-07-27T07:21:57.747Z,98324.03
2022-07-27T07:23:00.206Z,98324.78
2022-07-27T07:24:01.987Z,98328.03
2022-07-27T07:25:04.266Z,98330.41
2022-07-27T07:26:05.895Z,98327.19
2022-07-27T07:27:07.385Z,98325.50
2022-07-27T07:28:08.946Z,98323.22
2022-07-27T07:29:10.908Z,98324.88
2022-07-27T07:30:13.056Z,98319.50
2022-07-27T07:31:16.039Z,98330.34
2022-07-27T07:32:20.494Z,98318.94
2022-07-27T07:33:21.961Z,98315.97
2022-07-27T07:34:23.556Z,98318.19
2022-07-27T07:35:26.123Z,98321.97
2022-07-27T07:36:27.613Z,98319.72
2022-07-27T07:37:31.798Z,98317.78
2022-07-27T07:38:35.346Z,98308.88
2022-07-27T07:39:39.015Z,98312.22
2022-07-27T07:40:43.762Z,98315.72
2022-07-27T07:41:46.054Z,98316.47
2022-07-27T07:42:53.015Z,98311.53
2022-07-27T07:43:54.579Z,98317.91
2022-07-27T07:44:56.374Z,98304.25
2022-07-27T07:45:57.806Z,98304.34
2022-07-27T07:46:59.807Z,98316.59
2022-07-27T07:48:01.456Z,98311.44
2022-07-27T07:49:04.287Z,98309.13
2022-07-27T07:50:06.583Z,98304.28
2022-07-27T07:51:08.036Z,98312.88
2022-07-27T07:52:09.469Z,98301.50
2022-07-27T07:53:10.903Z,98305.50
2022-07-27T07:54:15.752Z,98304.09
2022-07-27T07:55:21.880Z,98307.94
2022-07-27T07:56:23.360Z,98315.13
2022-07-27T07:57:24.818Z,98310.31
2022-07-27T07:58:26.784Z,98307.28
2022-07-27T07:59:28.234Z,98307.69
2022-07-27T08:00:30.776Z,98316.59
2022-07-27T08:01:32.401Z,98305.28
2022-07-27T08:02:42.905Z,98310.97
2022-07-27T08:03:50.343Z,98309.13
2022-07-27T08:04:52.211Z,98315.75
2022-07-27T08:05:53.987Z,98313.03
2022-07-27T08:06:56.352Z,98308.31
2022-07-27T08:07:57.926Z,98315.06
2022-07-27T08:08:59.376Z,98307.94
2022-07-27T08:10:00.797Z,98308.69
2022-07-27T08:11:02.562Z,98312.13
2022-07-27T08:12:04.244Z,98313.13
2022-07-27T08:13:05.682Z,98307.94
2022-07-27T08:14:07.129Z,98310.06
2022-07-27T08:15:09.857Z,98302.72
2022-07-27T08:16:11.598Z,98310.94
2022-07-27T08:17:14.234Z,98316.97
2022-07-27T08:18:15.750Z,98313.53
2022-07-27T08:19:17.227Z,98312.53
2022-07-27T08:20:19.174Z,98316.97
2022-07-27T08:21:20.658Z,98319.75
2022-07-27T08:22:22.245Z,98317.91
2022-07-27T08:23:23.687Z,98314.81
2022-07-27T08:24:25.120Z,98315.16
2022-07-27T08:25:26.872Z,98311.75
2022-07-27T08:26:28.326Z,98318.97
2022-07-27T08:27:29.814Z,98320.66
2022-07-27T08:28:41.889Z,98311.66
2022-07-27T08:29:43.846Z,98320.97
2022-07-27T08:30:46.020Z,98323.38
2022-07-27T08:31:52.685Z,98320.25
2022-07-27T08:33:01.289Z,98322.88
2022-07-27T08:34:03.103Z,98318.22
2022-07-27T08:35:04.982Z,98324.53
2022-07-27T08:36:06.980Z,98319.06
2022-07-27T08:37:12.069Z,98314.75
2022-07-27T08:38:16.820Z,98319.56
2022-07-27T08:39:52.460Z,98319.59
2022-07-27T08:40:43.668Z,98315.44
2022-07-27T08:41:47.604Z,98313.19
2022-07-27T08:42:49.225Z,98315.31
2022-07-27T08:43:52.355Z,98317.03
2022-07-27T08:44:54.737Z,98316.72
2022-07-27T08:45:58.529Z,98311.78
2022-07-27T08:47:03.942Z,98316.16
2022-07-27T08:48:06.350Z,98314.63
2022-07-27T08:49:09.048Z,98312.72
2022-07-27T08:50:27.239Z,98312.28
2022-07-27T08:51:28.992Z,98315.25
2022-07-27T08:52:31.376Z,98311.75
2022-07-27T08:53:35.793Z,98318.22
2022-07-27T08:54:54.912Z,98313.28
2022-07-27T08:55:57.563Z,98317.31
2022-07-27T08:56:59.059Z,98314.34
2022-07-27T08:58:03.513Z,98319.13
2022-07-27T08:59:05.422Z,98318.34
2022-07-27T09:00:07.627Z,98321.31
2022-07-27T09:01:09.101Z,98319.19
2022-07-27T09:02:14.095Z,98323.88
2022-07-27T09:03:20.698Z,98324.97
2022-07-27T09:04:22.887Z,98324.09
2022-07-27T09:05:24.502Z,98318.44
2022-07-27T09:06:42.746Z,98326.53
2022-07-27T09:07:44.250Z,98314.81
2022-07-27T09:08:59.295Z,98315.13
2022-07-27T09:10:00.837Z,98318.88
2022-07-27T09:11:14.096Z,98313.31
2022-07-27T09:12:15.565Z,98316.16
2022-07-27T09:13:28.857Z,98320.06
2022-07-27T09:14:32.207Z,98325.91
2022-07-27T09:15:34.919Z,98322.16
2022-07-27T09:17:03.420Z,98332.53
2022-07-27T09:17:58.126Z,98326.66
2022-07-27T09:19:03.779Z,98323.66
2022-07-27T09:20:08.655Z,98326.34
2022-07-27T09:21:16.684Z,98324.03
2022-07-27T09:22:39.040Z,98328.81
2022-07-27T09:23:48.163Z,98329.41
2022-07-27T09:25:02.954Z,98332.47
2022-07-27T09:26:31.766Z,98327.22
2022-07-27T09:27:35.232Z,98327.97
2022-07-27T09:28:37.182Z,98328.72
2022-07-27T09:29:38.726Z,98328.28
2022-07-27T09:30:43.684Z,98321.97
2022-07-27T09:31:51.475Z,98326.63
2022-07-27T09:32:54.618Z,98329.13
2022-07-27T09:33:59.579Z,98328.50
2022-07-27T09:35:18.798Z,98325.47
2022-07-27T09:36:22.810Z,98330.28
2022-07-27T09:37:26.509Z,98330.97
2022-07-27T09:38:27.970Z,98326.94
2022-07-27T09:39:29.907Z,98328.13
2022-07-27T09:40:31.361Z,98330.69
2022-07-27T09:41:42.029Z,98330.28
2022-07-27T09:43:09.213Z,98325.22
2022-07-27T09:44:30.508Z,98331.41
2022-07-27T09:45:32.437Z,98328.28
2022-07-27T09:46:38.005Z,98327.44
2022-07-27T09:47:39.734Z,98320.47
2022-07-27T09:48:41.592Z,98325.44
2022-07-27T09:49:43.153Z,98326.00
2022-07-27T09:51:02.573Z,98329.66
2022-07-27T09:52:05.630Z,98327.94
2022-07-27T09:53:41.317Z,98321.75
2022-07-27T09:54:47.586Z,98331.03
2022-07-27T09:56:13.299Z,98331.53
2022-07-27T09:57:15.188Z,98330.97
2022-07-27T09:58:16.671Z,98321.25
2022-07-27T09:59:19.642Z,98337.38
2022-07-27T10:00:22.767Z,98326.59
2022-07-27T10:01:30.111Z,98325.63
2022-07-27T10:02:31.645Z,98327.31
2022-07-27T10:03:33.468Z,98325.69
2022-07-27T10:04:35.532Z,98335.16
2022-07-27T10:05:37.444Z,98328.50
2022-07-27T10:07:01.065Z,98334.53
2022-07-27T10:08:01.204Z,98332.63
2022-07-27T10:09:03.259Z,98337.44
2022-07-27T10:10:05.566Z,98339.38
2022-07-27T10:11:07.443Z,98341.63
2022-07-27T10:12:09.550Z,98340.97
2022-07-27T10:13:11.034Z,98338.78
2022-07-27T10:14:12.854Z,98338.94
2022-07-27T10:15:14.835Z,98343.63
2022-07-27T10:16:37.534Z,98338.59
2022-07-27T10:17:41.578Z,98334.06
2022-07-27T10:19:12.412Z,98338.41
2022-07-27T10:20:17.360Z,98340.09
2022-07-27T10:21:19.589Z,98337.63
2022-07-27T10:23:09.651Z,98342.63
2022-07-27T10:24:24.109Z,98338.56
2022-07-27T10:25:32.429Z,98343.72
2022-07-27T10:26:42.419Z,98338.34
2022-07-27T10:27:48.496Z,98344.31
2022-07-27T10:28:56.046Z,98344.47
2022-07-27T10:29:58.767Z,98331.63
2022-07-27T10:31:17.563Z,98334.56
2022-07-27T10:32:28.014Z,98336.66
2022-07-27T10:33:43.712Z,98346.69
2022-07-27T10:34:45.199Z,98339.34
2022-07-27T10:35:46.951Z,98346.47
2022-07-27T10:36:54.024Z,98351.63
2022-07-27T10:38:15.396Z,98355.47
2022-07-27T10:39:34.993Z,98353.78
2022-07-27T10:40:36.989Z,98351.25
2022-07-27T10:41:40.646Z,98357.31
2022-07-27T10:42:43.181Z,98354.09
2022-07-27T10:43:44.676Z,98353.56
2022-07-27T10:44:54.469Z,98356.78
2022-07-27T10:46:02.172Z,98351.50
2022-07-27T10:47:04.451Z,98347.78
2022-07-27T10:48:06.019Z,98351.25
2022-07-27T10:49:19.159Z,98351.59
2022-07-27T10:50:23.829Z,98353.41
2022-07-27T10:51:35.461Z,98362.28
2022-07-27T10:52:42.535Z,98364.50
2022-07-27T10:54:10.867Z,98353.16
2022-07-27T10:55:08.804Z,98356.63
2022-07-27T10:56:10.960Z,98356.66
2022-07-27T10:57:12.687Z,98353.44
2022-07-27T10:58:14.087Z,98350.78
2022-07-27T10:59:57.837Z,98348.66
2022-07-27T11:01:04.909Z,98350.63
2022-07-27T11:02:11.368Z,98350.81
2022-07-27T11:03:32.959Z,98357.69
2022-07-27T11:04:42.719Z,98353.16
2022-07-27T11:05:59.977Z,98355.09
2022-07-27T11:07:28.020Z,98351.22
2022-07-27T11:08:44.898Z,98349.75
2022-07-27T11:10:03.577Z,98355.28
2022-07-27T11:11:07.184Z,98354.56
2022-07-27T11:12:11.157Z,98352.75
2022-07-27T11:13:13.202Z,98362.38
2022-07-27T11:14:15.341Z,98355.44
2022-07-27T11:15:21.124Z,98354.84
2022-07-27T11:16:25.793Z,98353.97
2022-07-27T11:17:54.762Z,98347.78
2022-07-27T11:19:01.527Z,98353.19
2022-07-27T11:20:04.021Z,98353.66
2022-07-27T11:21:30.256Z,98352.63
2022-07-27T11:24:14.936Z,98355.03
2022-07-27T11:25:16.655Z,98352.75
2022-07-27T11:26:18.715Z,98354.84
2022-07-27T11:27:25.218Z,98361.59
2022-07-27T11:28:31.902Z,98356.34
2022-07-27T11:29:39.989Z,98356.75
2022-07-27T11:30:45.528Z,98352.41
2022-07-27T11:31:56.638Z,98352.75
2022-07-27T11:33:04.275Z,98353.50
2022-07-27T11:34:06.310Z,98344.22
2022-07-27T11:35:19.654Z,98344.81
2022-07-27T11:36:23.019Z,98340.31
2022-07-27T11:37:24.589Z,98347.66
2022-07-27T11:38:26.591Z,98349.75
2022-07-27T11:39:59.267Z,98346.34
2022-07-27T11:41:02.241Z,98344.81
2022-07-27T11:42:11.976Z,98339.41
2022-07-27T11:43:33.580Z,98340.31
2022-07-27T11:44:37.481Z,98340.78
2022-07-27T11:45:41.976Z,98341.78
2022-07-27T11:46:45.529Z,98337.13
2022-07-27T11:47:56.861Z,98337.44
2022-07-27T11:49:17.725Z,98332.22
2022-07-27T11:50:19.324Z,98346.75
2022-07-27T11:51:21.377Z,98349.28
2022-07-27T11:52:25.196Z,98338.34
2022-07-27T11:53:27.477Z,98337.91
2022-07-27T11:54:34.567Z,98337.00
2022-07-27T11:55:36.096Z,98338.66
2022-07-27T11:56:43.472Z,98340.34
2022-07-27T11:57:44.932Z,98341.81
2022-07-27T11:59:06.144Z,98334.31
2022-07-27T12:00:08.421Z,98342.72
2022-07-27T12:01:09.856Z,98333.41
2022-07-27T12:02:17.704Z,98341.22
2022-07-27T12:03:32.229Z,98341.78
2022-07-27T12:04:50.376Z,98334.31
2022-07-27T12:05:56.823Z,98343.16
2022-07-27T12:07:31.904Z,98337.75
2022-07-27T12:08:33.831Z,98341.06
2022-07-27T12:09:38.593Z,98344.84
2022-07-27T12:10:57.035Z,98348.44
2022-07-27T12:12:09.213Z,98349.75
2022-07-27T12:13:18.907Z,98337.00
2022-07-27T12:14:33.454Z,98344.34
2022-07-27T12:15:45.877Z,98348.13
2022-07-27T12:16:48.116Z,98340.31
2022-07-27T12:17:56.998Z,98341.03
2022-07-27T12:18:58.733Z,98347.47
2022-07-27T12:20:15.300Z,98342.53
2022-07-27T12:21:18.389Z,98346.94
2022-07-27T12:22:37.440Z,98351.72
2022-07-27T12:23:52.996Z,98344.34
2022-07-27T12:24:58.691Z,98346.31
2022-07-27T12:26:17.269Z,98338.84
2022-07-27T12:27:18.970Z,98343.50
2022-07-27T12:28:25.533Z,98343.59
2022-07-27T12:29:27.362Z,98347.78
2022-07-27T12:30:28.787Z,98349.31
2022-07-27T12:31:30.333Z,98346.34
2022-07-27T12:32:34.475Z,98348.84
2022-07-27T12:33:38.148Z,98350.03
2022-07-27T12:34:39.676Z,98353.19
2022-07-27T12:35:46.772Z,98352.59